KSMF/SMF METAR and TAF weather

Enter ICAO airport designator
Station Type Date Time Source
KSMF METAR 2020/02/29 02:53 UTC NOAA

KSMF 290253Z 20006KT 10SM BKN250 18/10 A3004 RMK AO2 SLP173 T01780100 55000


Station Type Date Time Source
KSMF Decoded METAR 2020/02/29 02:53 UTC NOAA

SACRAMENTO INTERNATIONAL AIRPORT, CA, United States (KSMF) 38-42N 121-36W 6M
Feb 28, 2020 - 09:53 PM EST / 2020.02.29 0253 UTC
Wind: from the SSW (200 degrees) at 7 MPH (6 KT):0
Visibility: 10 mile(s):0
Sky conditions: mostly cloudy
Temperature: 64.0 F (17.8 C)
Dew Point: 50.0 F (10.0 C)
Relative Humidity: 60%
Pressure (altimeter): 30.04 in. Hg (1017 hPa)
Pressure tendency: 0.00 inches (0.0 hPa) lower than three hours ago
ob: KSMF 290253Z 20006KT 10SM BKN250 18/10 A3004 RMK AO2 SLP173 T01780100 55000
cycle: 3

Station Type Date Time Source
KSMF TAF 2020/02/28 18:30 UTC NOAA

TAF KSMF 281728Z 2818/2918 VRB04KT P6SM FEW250
FM282200 17005KT P6SM BKN250

Example: see airport list